createdAt,value
2019-01-11T00:00:15.413Z,12.3
2019-01-11T00:01:06.051Z,12.3
2019-01-11T00:01:55.563Z,12.3
2019-01-11T00:02:45.891Z,12.3
2019-01-11T00:03:35.371Z,12.3
2019-01-11T00:04:25.696Z,12.3
2019-01-11T00:05:16.346Z,12.3
2019-01-11T00:06:04.415Z,12.3
2019-01-11T00:06:55.033Z,12.3
2019-01-11T00:07:45.908Z,12.3
2019-01-11T00:08:35.472Z,12.2
2019-01-11T00:09:25.198Z,12.2
2019-01-11T00:10:15.820Z,12.2
2019-01-11T00:11:06.215Z,12.2
2019-01-11T00:11:55.916Z,12.2
2019-01-11T00:12:46.251Z,12.2
2019-01-11T00:13:36.658Z,12.2
2019-01-11T00:14:26.939Z,12.2
2019-01-11T00:15:16.427Z,12.1
2019-01-11T00:16:06.794Z,12.1
2019-01-11T00:34:29.426Z,11.9
2019-01-11T00:35:20.456Z,11.9
2019-01-11T00:36:10.831Z,11.9
2019-01-11T00:37:00.079Z,11.9
2019-01-11T00:37:49.816Z,11.9
2019-01-11T00:38:39.839Z,11.9
2019-01-11T00:39:29.171Z,11.9
2019-01-11T00:40:20.304Z,11.9
2019-01-11T00:41:10.368Z,11.9
2019-01-11T00:41:59.366Z,11.9
2019-01-11T00:42:50.248Z,11.9
2019-01-11T00:43:39.979Z,11.9
2019-01-11T00:44:30.057Z,11.9
2019-01-11T00:45:20.081Z,11.9
2019-01-11T00:46:09.892Z,11.9
2019-01-11T00:46:59.848Z,11.9
2019-01-11T00:47:49.726Z,11.9
2019-01-11T00:48:39.765Z,11.8
2019-01-11T00:49:31.273Z,11.9
2019-01-11T00:50:20.975Z,11.9
2019-01-11T00:51:10.709Z,11.8
2019-01-11T00:52:00.738Z,11.8
2019-01-11T00:52:50.264Z,11.8
2019-01-11T00:53:41.180Z,11.8
2019-01-11T00:54:30.445Z,11.8
2019-01-11T00:55:21.598Z,11.8
2019-01-11T00:56:11.350Z,11.8
2019-01-11T00:57:00.882Z,11.8
2019-01-11T00:57:51.232Z,11.8
2019-01-11T00:58:41.772Z,11.8
2019-01-11T00:59:32.093Z,11.8
2019-01-11T01:00:20.792Z,11.8
2019-01-11T01:01:11.117Z,11.8
2019-01-11T01:02:01.163Z,11.8
2019-01-11T01:02:51.840Z,11.8
2019-01-11T01:03:41.935Z,11.8
2019-01-11T01:04:31.318Z,11.8
2019-01-11T01:05:20.648Z,11.8
2019-01-11T01:06:11.574Z,11.8
2019-01-11T01:07:02.082Z,11.8
2019-01-11T01:07:51.954Z,11.8
2019-01-11T01:08:41.967Z,11.7
2019-01-11T01:09:31.174Z,11.8
2019-01-11T01:10:21.839Z,11.7
2019-01-11T01:11:11.033Z,11.7
2019-01-11T01:12:02.287Z,11.7
2019-01-11T01:12:51.414Z,11.7
2019-01-11T01:13:41.729Z,11.7
2019-01-11T01:14:32.136Z,11.7
2019-01-11T01:15:22.805Z,11.7
2019-01-11T01:16:11.926Z,11.7
2019-01-11T01:17:02.236Z,11.7
2019-01-11T01:17:53.051Z,11.6
2019-01-11T01:18:43.124Z,11.6
2019-01-11T01:19:32.619Z,11.7
2019-01-11T01:20:22.762Z,11.7
2019-01-11T01:21:13.321Z,11.6
2019-01-11T01:22:03.734Z,11.6
2019-01-11T01:22:52.876Z,11.6
2019-01-11T01:23:43.200Z,11.6
2019-01-11T01:24:32.433Z,11.6
2019-01-11T01:25:22.843Z,11.6
2019-01-11T01:26:12.871Z,11.6
2019-01-11T01:27:02.376Z,11.6
2019-01-11T01:27:52.726Z,11.6
2019-01-11T01:28:42.698Z,11.6
2019-01-11T01:29:31.905Z,11.6
2019-01-11T01:30:23.034Z,11.6
2019-01-11T01:31:11.658Z,11.6
2019-01-11T01:32:03.055Z,11.6
2019-01-11T01:32:53.883Z,11.5
2019-01-11T01:33:43.650Z,11.6
2019-01-11T01:34:33.145Z,11.6
2019-01-11T01:35:23.185Z,11.6
2019-01-11T01:36:13.738Z,11.6
2019-01-11T01:37:04.115Z,11.6
2019-01-11T01:37:54.424Z,11.6
2019-01-11T01:38:43.921Z,11.6
2019-01-11T01:39:34.260Z,11.6
2019-01-11T01:40:24.862Z,11.6
2019-01-11T01:41:12.781Z,11.6
2019-01-11T01:42:04.967Z,11.6
2019-01-11T01:42:55.015Z,11.6
2019-01-11T01:43:45.078Z,11.6
2019-01-11T01:44:34.364Z,11.6
2019-01-11T01:45:24.417Z,11.7
2019-01-11T01:46:14.979Z,11.7
2019-01-11T01:47:04.520Z,11.7
2019-01-11T01:47:54.077Z,11.7
2019-01-11T01:48:46.087Z,11.7
2019-01-11T01:49:35.139Z,11.7
2019-01-11T01:50:25.049Z,11.7
2019-01-11T01:51:14.767Z,11.7
2019-01-11T01:52:05.667Z,11.7
2019-01-11T01:52:54.934Z,11.8
2019-01-11T01:53:44.939Z,11.8
2019-01-11T01:54:35.604Z,11.8
2019-01-11T01:55:24.784Z,11.9
2019-01-11T01:56:14.569Z,11.9
2019-01-11T01:57:04.884Z,11.9
2019-01-11T01:57:55.509Z,11.9
2019-01-11T01:58:45.806Z,12
2019-01-11T01:59:34.784Z,12
2019-01-11T02:00:24.652Z,12.1
2019-01-11T02:01:14.694Z,12.1
2019-01-11T02:02:05.637Z,12.1
2019-01-11T02:02:55.056Z,12.1
2019-01-11T02:03:45.704Z,12.2
2019-01-11T02:04:35.553Z,12.2
2019-01-11T02:05:25.279Z,12.3
2019-01-11T02:06:16.101Z,12.3
2019-01-11T02:07:05.916Z,12.3
2019-01-11T02:07:56.298Z,12.3
2019-01-11T02:08:45.768Z,12.3
2019-01-11T02:09:34.981Z,12.3
2019-01-11T02:10:25.876Z,12.4
2019-01-11T02:11:16.189Z,12.4
2019-01-11T02:12:05.953Z,12.4
2019-01-11T02:12:56.820Z,12.4
2019-01-11T02:13:46.350Z,12.5
2019-01-11T02:14:36.347Z,12.5
2019-01-11T02:15:26.940Z,12.5
2019-01-11T02:16:15.968Z,12.6
2019-01-11T02:17:06.073Z,12.6
2019-01-11T02:17:56.850Z,12.6
2019-01-11T02:18:47.458Z,12.6
2019-01-11T02:19:41.575Z,12.6
2019-01-11T02:20:26.500Z,12.6
2019-01-11T02:21:15.725Z,12.7
2019-01-11T02:22:06.937Z,12.6
2019-01-11T02:22:57.205Z,12.7
2019-01-11T02:23:47.237Z,12.7
2019-01-11T02:24:37.585Z,12.7
2019-01-11T02:25:27.082Z,12.7
2019-01-11T02:26:17.470Z,12.7
2019-01-11T02:27:07.042Z,12.8
2019-01-11T02:27:56.882Z,12.8
2019-01-11T02:28:47.017Z,12.8
2019-01-11T02:29:36.319Z,12.8
2019-01-11T02:30:27.363Z,12.8
2019-01-11T02:31:17.572Z,12.8
2019-01-11T02:32:08.430Z,12.8
2019-01-11T02:33:01.025Z,12.8
2019-01-11T02:33:47.696Z,12.8
2019-01-11T02:34:37.211Z,12.8
2019-01-11T02:35:28.179Z,12.9
2019-01-11T02:36:16.697Z,12.9
2019-01-11T02:37:09.104Z,12.9
2019-01-11T02:37:58.002Z,12.9
2019-01-11T02:38:48.311Z,12.9
2019-01-11T02:39:37.854Z,12.9
2019-01-11T02:40:28.818Z,12.9
2019-01-11T02:41:18.492Z,12.9
2019-01-11T02:42:08.301Z,12.9
2019-01-11T02:42:57.629Z,12.9
2019-01-11T02:43:48.086Z,12.9
2019-01-11T02:44:39.730Z,12.9
2019-01-11T02:45:28.461Z,12.9
2019-01-11T02:46:17.428Z,12.9
2019-01-11T02:47:09.136Z,12.9
2019-01-11T02:47:59.223Z,12.9
2019-01-11T02:48:48.975Z,12.9
2019-01-11T02:49:45.678Z,12.9
2019-01-11T02:50:29.727Z,12.9
2019-01-11T02:51:18.979Z,12.9
2019-01-11T02:52:10.043Z,12.9
2019-01-11T02:52:59.060Z,12.9
2019-01-11T02:53:49.360Z,12.9
2019-01-11T02:54:39.683Z,13
2019-01-11T02:55:29.747Z,13
2019-01-11T02:56:19.498Z,13
2019-01-11T02:57:09.313Z,13
2019-01-11T02:57:59.830Z,13
2019-01-11T02:58:49.675Z,13
2019-01-11T02:59:39.479Z,13
2019-01-11T03:00:29.275Z,13
2019-01-11T03:01:19.321Z,13.1
2019-01-11T03:02:09.708Z,13.1
2019-01-11T03:02:59.684Z,13.1
2019-01-11T03:03:49.201Z,13.1
2019-01-11T03:04:39.793Z,13.1
2019-01-11T03:05:31.391Z,13.1
2019-01-11T03:06:19.599Z,13.1
2019-01-11T03:07:10.495Z,13.1
2019-01-11T03:07:59.709Z,13.1
2019-01-11T03:08:50.632Z,13.1
2019-01-11T03:09:40.419Z,13.1
2019-01-11T03:10:28.482Z,13.1
2019-01-11T03:11:20.774Z,13.1
2019-01-11T03:12:10.599Z,13.1
2019-01-11T03:13:00.379Z,13.1
2019-01-11T03:13:50.154Z,13.1
2019-01-11T03:14:41.031Z,13.1
2019-01-11T03:15:30.039Z,13.1
2019-01-11T03:16:21.336Z,13.1
2019-01-11T03:17:10.907Z,13.1
2019-01-11T03:18:00.669Z,13.1
2019-01-11T03:18:50.781Z,13.1
2019-01-11T03:19:48.101Z,13.1
2019-01-11T03:20:31.184Z,13.2
2019-01-11T03:21:21.521Z,13.2
2019-01-11T03:22:10.691Z,13.1
2019-01-11T03:23:00.812Z,13.1
2019-01-11T03:23:51.396Z,13.2
2019-01-11T03:24:41.443Z,13.2
2019-01-11T03:25:30.937Z,13.2
2019-01-11T03:26:21.496Z,13.2
2019-01-11T03:27:11.292Z,13.2
2019-01-11T03:28:02.274Z,13.2
2019-01-11T03:28:51.433Z,13.2
2019-01-11T03:29:42.096Z,13.2
2019-01-11T03:30:31.789Z,13.2
2019-01-11T03:31:22.011Z,13.2
2019-01-11T03:32:12.114Z,13.2
2019-01-11T03:33:01.467Z,13.3
2019-01-11T03:33:51.196Z,13.3
2019-01-11T03:34:42.400Z,13.3
2019-01-11T03:35:32.266Z,13.3
2019-01-11T03:36:22.511Z,13.3
2019-01-11T03:37:12.545Z,13.3
2019-01-11T03:38:01.739Z,13.3
2019-01-11T03:38:52.410Z,13.3
2019-01-11T03:39:41.930Z,13.3
2019-01-11T03:40:32.845Z,13.3
2019-01-11T03:41:21.730Z,13.3
2019-01-11T03:42:13.208Z,13.3
2019-01-11T03:43:02.730Z,13.3
2019-01-11T03:43:53.008Z,13.3
2019-01-11T03:44:42.532Z,13.3
2019-01-11T03:45:34.192Z,13.3
2019-01-11T03:46:22.900Z,13.3
2019-01-11T03:47:12.712Z,13.3
2019-01-11T03:48:03.882Z,13.3
2019-01-11T03:48:53.145Z,13.3
2019-01-11T03:49:43.382Z,13.3
2019-01-11T03:50:32.922Z,13.3
2019-01-11T03:51:23.278Z,13.3
2019-01-11T03:52:12.447Z,13.3
2019-01-11T03:53:02.839Z,13.3
2019-01-11T03:53:53.366Z,13.3
2019-01-11T03:54:41.282Z,13.3
2019-01-11T03:55:32.939Z,13.3
2019-01-11T03:56:24.204Z,13.3
2019-01-11T03:57:13.699Z,13.3
2019-01-11T03:58:03.413Z,13.3
2019-01-11T03:58:53.145Z,13.3
2019-01-11T03:59:43.836Z,13.3
2019-01-11T04:00:33.839Z,13.3
2019-01-11T04:01:22.829Z,13.3
2019-01-11T04:02:12.871Z,13.3
2019-01-11T04:03:03.196Z,13.3
2019-01-11T04:03:53.254Z,13.3
2019-01-11T04:04:42.738Z,13.3
2019-01-11T04:05:34.187Z,13.3
2019-01-11T04:06:24.609Z,13.3
2019-01-11T04:07:13.731Z,13.3
2019-01-11T04:08:04.611Z,13.3
2019-01-11T04:08:54.264Z,13.3
2019-01-11T04:09:43.975Z,13.3
2019-01-11T04:10:33.473Z,13.3
2019-01-11T04:11:24.935Z,13.3
2019-01-11T04:12:13.540Z,13.3
2019-01-11T04:13:04.684Z,13.3
2019-01-11T04:13:54.455Z,13.3
2019-01-11T04:14:44.850Z,13.3
2019-01-11T04:15:35.162Z,13.3
2019-01-11T04:16:24.005Z,13.3
2019-01-11T04:17:15.240Z,13.3
2019-01-11T04:18:05.004Z,13.3
2019-01-11T04:18:55.338Z,13.3
2019-01-11T04:19:44.855Z,13.3
2019-01-11T04:20:35.485Z,13.3
2019-01-11T04:21:24.972Z,13.4
2019-01-11T04:22:14.534Z,13.3
2019-01-11T04:23:05.362Z,13.4
2019-01-11T04:23:54.978Z,13.3
2019-01-11T04:24:46.383Z,13.4
2019-01-11T04:25:35.650Z,13.4
2019-01-11T04:26:25.370Z,13.4
2019-01-11T04:27:15.397Z,13.3
2019-01-11T04:28:06.290Z,13.4
2019-01-11T04:28:55.607Z,13.4
2019-01-11T04:29:44.744Z,13.4
2019-01-11T04:30:35.181Z,13.4
2019-01-11T04:31:25.417Z,13.4
2019-01-11T04:32:15.238Z,13.4
2019-01-11T04:33:06.374Z,13.4
2019-01-11T04:33:56.383Z,13.4
2019-01-11T04:34:45.647Z,13.4
2019-01-11T04:35:36.527Z,13.4
2019-01-11T04:36:26.563Z,13.4
2019-01-11T04:37:16.047Z,13.4
2019-01-11T04:38:05.934Z,13.4
2019-01-11T04:38:55.423Z,13.4
2019-01-11T04:39:46.655Z,13.4
2019-01-11T04:40:42.238Z,13.4
2019-01-11T04:41:25.597Z,13.4
2019-01-11T04:42:16.483Z,13.4
2019-01-11T04:43:07.057Z,13.4
2019-01-11T04:43:55.784Z,13.4
2019-01-11T04:44:47.226Z,13.4
2019-01-11T04:45:37.034Z,13.4
2019-01-11T04:46:26.997Z,13.4
2019-01-11T05:04:03.882Z,13.5
2019-01-11T05:05:02.058Z,13.5
2019-01-11T05:05:31.131Z,13.5
2019-01-11T05:07:17.390Z,13.5
2019-01-11T05:08:01.910Z,13.5
2019-01-11T05:10:00.390Z,13.5
2019-01-11T05:10:38.432Z,13.5
2019-01-11T05:12:15.927Z,13.5
2019-01-11T09:18:14.975Z,13.6
2019-01-11T09:19:04.854Z,13.6
2019-01-11T09:19:55.399Z,13.6
2019-01-11T09:20:46.248Z,13.6
2019-01-11T09:21:42.952Z,13.6
2019-01-11T09:22:26.338Z,13.7
2019-01-11T09:23:14.539Z,13.7
2019-01-11T09:24:05.980Z,13.7
2019-01-11T09:24:55.723Z,13.7
2019-01-11T09:25:45.233Z,13.7
2019-01-11T09:26:35.525Z,13.7
2019-01-11T09:27:24.752Z,13.8
2019-01-11T09:28:16.480Z,13.8
2019-01-11T09:29:06.327Z,13.7
2019-01-11T09:29:56.005Z,13.8
2019-01-11T09:30:46.061Z,13.7
2019-01-11T09:31:36.120Z,13.7
2019-01-11T09:32:26.495Z,13.7
2019-01-11T09:33:22.822Z,13.6
2019-01-11T09:34:06.845Z,13.7
2019-01-11T09:34:56.660Z,13.7
2019-01-11T09:35:46.482Z,13.7
2019-01-11T09:36:35.740Z,13.8
2019-01-11T09:37:26.270Z,13.8
2019-01-11T09:38:17.527Z,13.8
2019-01-11T09:39:06.454Z,13.8
2019-01-11T09:39:57.043Z,13.8
2019-01-11T09:40:46.532Z,13.8
2019-01-11T09:41:36.539Z,13.8
2019-01-11T09:42:26.634Z,13.8
2019-01-11T09:43:16.687Z,13.8
2019-01-11T09:44:06.737Z,13.8
2019-01-11T09:44:57.087Z,13.8
2019-01-11T09:45:47.089Z,13.8
2019-01-11T09:46:37.417Z,13.8
2019-01-11T09:47:27.736Z,13.8
2019-01-11T09:48:17.054Z,13.8
2019-01-11T09:49:06.766Z,13.8
2019-01-11T09:49:57.289Z,13.8
2019-01-11T09:50:47.234Z,13.8
2019-01-11T09:51:37.270Z,13.7
2019-01-11T09:52:27.251Z,13.7
2019-01-11T09:53:17.348Z,13.6
2019-01-11T09:54:07.959Z,13.7
2019-01-11T09:54:58.274Z,13.7
2019-01-11T09:55:46.926Z,13.7
2019-01-11T09:56:37.866Z,13.7
2019-01-11T09:57:28.148Z,13.7
2019-01-11T09:58:18.523Z,13.7
2019-01-11T09:59:07.903Z,13.7
2019-01-11T09:59:58.021Z,13.7
2019-01-11T10:00:49.426Z,13.7
2019-01-11T10:01:37.923Z,13.7
2019-01-11T10:02:28.754Z,13.7
2019-01-11T10:03:19.187Z,13.7
2019-01-11T10:04:08.728Z,13.7
2019-01-11T10:04:58.235Z,13.7
2019-01-11T10:05:48.433Z,13.7
2019-01-11T10:06:38.291Z,13.7
2019-01-11T10:07:28.000Z,13.7
2019-01-11T10:08:18.635Z,13.6
2019-01-11T10:09:08.675Z,13.6
2019-01-11T10:09:58.996Z,13.6
2019-01-11T10:10:48.225Z,13.6
2019-01-11T10:11:38.010Z,13.6
2019-01-11T10:12:28.642Z,13.6
2019-01-11T10:13:18.950Z,13.6
2019-01-11T10:14:08.763Z,13.6
2019-01-11T10:14:59.082Z,13.5
2019-01-11T10:15:49.689Z,13.6
2019-01-11T10:16:39.195Z,13.6
2019-01-11T10:17:29.250Z,13.6
2019-01-11T10:18:19.292Z,13.6
2019-01-11T10:19:09.355Z,13.6
2019-01-11T10:19:58.890Z,13.7
2019-01-11T10:20:49.469Z,13.7
2019-01-11T10:21:38.670Z,13.8
2019-01-11T10:22:29.577Z,13.7
2019-01-11T10:23:19.362Z,13.6
2019-01-11T10:24:09.756Z,13.6
2019-01-11T10:24:59.867Z,13.6
2019-01-11T10:25:49.281Z,13.6
2019-01-11T10:26:39.607Z,13.6
2019-01-11T10:27:29.411Z,13.6
2019-01-11T10:28:20.501Z,13.7
2019-01-11T10:29:09.456Z,13.6
2019-01-11T10:29:58.408Z,13.6
2019-01-11T10:30:50.692Z,13.6
2019-01-11T10:31:40.176Z,13.6
2019-01-11T10:32:29.706Z,13.7
2019-01-11T10:33:20.301Z,13.6
2019-01-11T10:34:10.364Z,13.7
2019-01-11T10:35:00.681Z,13.6
2019-01-11T10:35:50.204Z,13.6
2019-01-11T10:36:40.508Z,13.6
2019-01-11T10:37:30.314Z,13.6
2019-01-11T10:38:20.648Z,13.6
2019-01-11T10:39:10.701Z,13.6
2019-01-11T10:40:01.348Z,13.6
2019-01-11T10:40:51.111Z,13.6
2019-01-11T10:41:41.413Z,13.6
2019-01-11T10:42:30.686Z,13.6
2019-01-11T10:43:20.141Z,13.6
2019-01-11T10:44:11.054Z,13.6
2019-01-11T10:45:01.415Z,13.6
2019-01-11T10:45:51.171Z,13.6
2019-01-11T10:46:40.923Z,13.6
2019-01-11T10:47:31.530Z,13.6
2019-01-11T10:48:21.040Z,13.6
2019-01-11T10:49:11.663Z,13.6
2019-01-11T10:50:01.140Z,13.6
2019-01-11T10:50:51.271Z,13.6
2019-01-11T10:51:42.095Z,13.6
2019-01-11T10:52:31.580Z,13.7
2019-01-11T10:53:20.334Z,13.7
2019-01-11T10:54:10.388Z,13.6
2019-01-11T10:55:00.443Z,13.6
2019-01-11T10:55:51.530Z,13.6
2019-01-11T10:56:42.172Z,13.6
2019-01-11T10:57:32.375Z,13.6
2019-01-11T10:58:21.706Z,13.6
2019-01-11T10:59:12.347Z,13.6
2019-01-11T11:00:02.358Z,13.6
2019-01-11T11:00:52.342Z,13.6
2019-01-11T11:01:41.902Z,13.5
2019-01-11T11:02:32.232Z,13.5
2019-01-11T11:03:22.334Z,13.6
2019-01-11T11:04:12.099Z,13.6
2019-01-11T11:05:01.017Z,13.6
2019-01-11T11:05:52.260Z,13.6
2019-01-11T11:06:42.322Z,13.6
2019-01-11T11:07:32.359Z,13.6
2019-01-11T11:08:23.482Z,13.6
2019-01-11T11:09:13.014Z,13.6
2019-01-11T11:10:02.864Z,13.6
2019-01-11T11:10:51.974Z,13.5
2019-01-11T11:11:43.179Z,13.4
2019-01-11T11:12:33.474Z,13.4
2019-01-11T11:13:22.984Z,13.5
2019-01-11T11:14:12.831Z,13.5
2019-01-11T11:15:03.151Z,13.4
2019-01-11T11:15:53.421Z,13.5
2019-01-11T11:16:43.254Z,13.5
2019-01-11T11:17:32.760Z,13.5
2019-01-11T11:18:23.318Z,13.5
2019-01-11T11:19:13.346Z,13.4
2019-01-11T11:20:02.808Z,13.4
2019-01-11T11:20:53.054Z,13.4
2019-01-11T11:21:43.073Z,13.5
2019-01-11T11:22:32.599Z,13.5
2019-01-11T11:23:22.941Z,13.5
2019-01-11T11:24:12.121Z,13.5
2019-01-11T11:25:03.588Z,13.6
2019-01-11T11:25:53.351Z,13.6
2019-01-11T11:26:43.177Z,13.5
2019-01-11T11:27:32.601Z,13.6
2019-01-11T11:28:23.505Z,13.6
2019-01-11T11:29:15.333Z,13.6
2019-01-11T11:30:03.423Z,13.6
2019-01-11T11:30:59.310Z,13.6
2019-01-11T11:31:44.045Z,13.6
2019-01-11T11:32:33.858Z,13.6
2019-01-11T11:33:23.060Z,13.6
2019-01-11T11:34:13.898Z,13.6
2019-01-11T11:35:03.417Z,13.6
2019-01-11T11:35:54.017Z,13.5
2019-01-11T11:36:44.148Z,13.5
2019-01-11T11:37:34.112Z,13.6
2019-01-11T11:38:24.707Z,13.6
2019-01-11T11:39:14.514Z,13.6
2019-01-11T11:40:03.310Z,13.6
2019-01-11T11:40:53.822Z,13.5
2019-01-11T11:41:43.927Z,13.5
2019-01-11T11:42:33.709Z,13.5
2019-01-11T11:43:24.514Z,13.5
2019-01-11T11:44:14.279Z,13.4
2019-01-11T11:45:04.696Z,13.4
2019-01-11T11:45:54.729Z,13.4
2019-01-11T11:46:44.252Z,13.4
2019-01-11T11:47:34.387Z,13.4
2019-01-11T11:48:25.204Z,13.5
2019-01-11T11:49:15.147Z,13.4
2019-01-11T11:50:05.242Z,13.5
2019-01-11T11:50:55.244Z,13.5
2019-01-11T11:51:50.024Z,13.5
2019-01-11T11:52:35.449Z,13.5
2019-01-11T11:53:26.788Z,13.6
2019-01-11T11:54:15.246Z,13.6
2019-01-11T11:55:04.768Z,13.6
2019-01-11T11:55:55.078Z,13.6
2019-01-11T11:56:46.721Z,13.6
2019-01-11T11:57:37.022Z,13.6
2019-01-11T11:58:25.800Z,13.6
2019-01-11T11:59:15.841Z,13.6
2019-01-11T12:00:05.060Z,13.6
2019-01-11T12:00:56.257Z,13.6
2019-01-11T12:01:54.591Z,13.6
2019-01-11T12:02:36.919Z,13.6
2019-01-11T12:03:26.088Z,13.6
2019-01-11T12:04:16.103Z,13.6
2019-01-11T12:05:05.984Z,13.6
2019-01-11T12:05:56.018Z,13.6
2019-01-11T12:06:46.066Z,13.6
2019-01-11T12:07:36.358Z,13.6
2019-01-11T12:08:26.415Z,13.6
2019-01-11T12:09:16.745Z,13.6
2019-01-11T12:10:06.820Z,13.6
2019-01-11T12:10:57.188Z,13.6
2019-01-11T12:11:46.915Z,13.6
2019-01-11T12:12:38.439Z,13.6
2019-01-11T12:13:26.793Z,13.6
2019-01-11T12:14:17.350Z,13.6
2019-01-11T12:15:06.885Z,13.6
2019-01-11T12:15:56.617Z,13.6
2019-01-11T12:16:47.287Z,13.6
2019-01-11T12:17:38.477Z,13.6
2019-01-11T12:18:27.691Z,13.6
2019-01-11T12:19:17.518Z,13.6
2019-01-11T12:20:07.567Z,13.6
2019-01-11T12:20:56.716Z,13.6
2019-01-11T12:21:53.810Z,13.6
2019-01-11T12:22:37.639Z,13.6
2019-01-11T12:23:28.277Z,13.6
2019-01-11T12:24:18.367Z,13.6
2019-01-11T12:25:07.589Z,13.6
2019-01-11T12:25:57.310Z,13.6
2019-01-11T12:26:47.491Z,13.6
2019-01-11T12:27:37.239Z,13.6
2019-01-11T12:28:27.022Z,13.6
2019-01-11T12:29:17.360Z,13.6
2019-01-11T12:30:07.716Z,13.6
2019-01-11T12:30:56.915Z,13.6
2019-01-11T12:31:47.210Z,13.6
2019-01-11T12:32:38.056Z,13.6
2019-01-11T12:33:27.164Z,13.7
2019-01-11T12:34:17.494Z,13.7
2019-01-11T12:35:07.261Z,13.6
2019-01-11T12:35:58.179Z,13.6
2019-01-11T12:36:47.579Z,13.6
2019-01-11T12:37:37.416Z,13.6
2019-01-11T12:38:27.794Z,13.6
2019-01-11T12:39:18.852Z,13.6
2019-01-11T12:40:08.867Z,13.6
2019-01-11T12:40:58.588Z,13.6
2019-01-11T12:41:49.264Z,13.6
2019-01-11T12:42:38.200Z,13.6
2019-01-11T12:43:29.089Z,13.6
2019-01-11T12:44:19.409Z,13.6
2019-01-11T12:45:08.638Z,13.6
2019-01-11T12:45:59.746Z,13.7
2019-01-11T12:46:48.704Z,13.7
2019-01-11T12:47:39.606Z,13.7
2019-01-11T12:48:28.576Z,13.6
2019-01-11T12:49:19.222Z,13.6
2019-01-11T12:50:09.517Z,13.6
2019-01-11T12:50:58.993Z,13.6
2019-01-11T12:51:55.618Z,13.6
2019-01-11T12:52:40.007Z,13.6
2019-01-11T12:53:30.040Z,13.6
2019-01-11T12:54:19.463Z,13.6
2019-01-11T12:55:09.633Z,13.6
2019-01-11T12:55:59.671Z,13.6
2019-01-11T12:56:50.258Z,13.7
2019-01-11T12:57:40.075Z,13.7
2019-01-11T12:58:29.765Z,13.8
2019-01-11T12:59:19.777Z,13.8
2019-01-11T13:00:09.645Z,13.7
2019-01-11T13:01:00.217Z,13.7
2019-01-11T13:01:49.551Z,13.6
2019-01-11T13:02:40.206Z,13.6
2019-01-11T13:03:30.445Z,13.6
2019-01-11T13:04:19.955Z,13.6
2019-01-11T13:05:08.965Z,13.7
2019-01-11T13:06:01.384Z,13.7
2019-01-11T13:06:51.134Z,13.6
2019-01-11T13:07:40.174Z,13.6
2019-01-11T13:08:29.967Z,13.6
2019-01-11T13:09:20.842Z,13.6
2019-01-11T13:10:10.657Z,13.6
2019-01-11T13:10:59.849Z,13.6
2019-01-11T13:11:51.002Z,13.6
2019-01-11T13:12:41.156Z,13.6
2019-01-11T13:13:30.591Z,13.7
2019-01-11T13:14:20.639Z,13.6
2019-01-11T13:15:11.211Z,13.7
2019-01-11T13:16:01.326Z,13.6
2019-01-11T13:16:50.891Z,13.6
2019-01-11T13:17:39.869Z,13.6
2019-01-11T13:18:29.879Z,13.6
2019-01-11T13:19:20.252Z,13.6
2019-01-11T13:20:10.301Z,13.6
2019-01-11T13:21:00.664Z,13.5
2019-01-11T13:21:50.704Z,13.4
2019-01-11T13:22:42.056Z,13.4
2019-01-11T13:23:31.863Z,13.4
2019-01-11T13:24:21.306Z,13.4
2019-01-11T13:25:11.998Z,13.4
2019-01-11T13:26:01.991Z,13.4
2019-01-11T13:26:52.351Z,13.4
2019-01-11T13:27:41.508Z,13.4
2019-01-11T13:28:30.748Z,13.4
2019-01-11T13:29:21.209Z,13.4
2019-01-11T13:30:11.839Z,13.3
2019-01-11T13:31:02.063Z,13.3
2019-01-11T13:31:51.595Z,13.3
2019-01-11T13:32:41.447Z,13.3
2019-01-11T13:33:31.738Z,13.3
2019-01-11T13:34:21.813Z,13.3
2019-01-11T13:35:11.817Z,13.3
2019-01-11T13:36:01.612Z,13.3
2019-01-11T13:36:59.760Z,13.3
2019-01-11T13:37:42.977Z,13.3
2019-01-11T13:38:32.756Z,13.3
2019-01-11T13:39:23.375Z,13.4
2019-01-11T13:40:12.288Z,13.4
2019-01-11T13:41:03.190Z,13.4
2019-01-11T13:41:53.825Z,13.3
2019-01-11T13:42:43.588Z,13.3
2019-01-11T13:43:32.887Z,13.3
2019-01-11T13:44:22.365Z,13.3
2019-01-11T13:45:13.319Z,13.3
2019-01-11T13:46:02.967Z,13.3
2019-01-11T13:46:53.334Z,13.3
2019-01-11T13:47:42.072Z,13.3
2019-01-11T13:48:32.137Z,13.3
2019-01-11T13:49:23.067Z,13.3
2019-01-11T13:50:12.824Z,13.3
2019-01-11T13:51:04.817Z,13.3
2019-01-11T13:51:53.171Z,13.3
2019-01-11T13:52:43.523Z,13.2
2019-01-11T13:53:33.291Z,13.2
2019-01-11T13:54:22.839Z,13.2
2019-01-11T13:55:13.329Z,13.2
2019-01-11T13:56:03.173Z,13.2
2019-01-11T13:56:53.191Z,13.2
2019-01-11T13:57:44.316Z,13.3
2019-01-11T13:58:34.187Z,13.3
2019-01-11T13:59:23.689Z,13.3
2019-01-11T14:16:56.535Z,13.1
2019-01-11T14:17:46.048Z,13.1
2019-01-11T14:18:35.537Z,13.1
2019-01-11T14:19:27.078Z,13.1
2019-01-11T14:20:15.401Z,13.1
2019-01-11T14:21:06.546Z,13.1
2019-01-11T14:21:56.433Z,13.1
2019-01-11T14:22:46.968Z,13.1
2019-01-11T14:23:35.660Z,13.1
2019-01-11T14:24:25.723Z,13.1
2019-01-11T14:25:18.101Z,13.1
2019-01-11T14:26:06.947Z,13.1
2019-01-11T14:26:57.234Z,13
2019-01-11T14:27:46.808Z,13
2019-01-11T14:28:36.007Z,13.1
2019-01-11T14:29:26.910Z,13.1
2019-01-11T14:30:16.457Z,13.1
2019-01-11T14:31:05.937Z,13.1
2019-01-11T14:31:56.290Z,13.1
2019-01-11T14:32:47.135Z,13
2019-01-11T14:33:37.379Z,13
2019-01-11T14:34:27.229Z,12.9
2019-01-11T14:35:16.951Z,12.9
2019-01-11T14:36:06.687Z,12.9
2019-01-11T14:36:58.454Z,12.9
2019-01-11T14:37:46.839Z,12.9
2019-01-11T14:38:36.940Z,12.9
2019-01-11T14:39:27.334Z,12.9
2019-01-11T14:40:16.576Z,12.9
2019-01-11T14:41:07.066Z,13
2019-01-11T14:41:58.061Z,13
2019-01-11T14:42:46.815Z,13
2019-01-11T14:43:37.512Z,13
2019-01-11T14:44:27.316Z,12.9
2019-01-11T14:45:17.064Z,13
2019-01-11T14:46:08.284Z,13
2019-01-11T14:46:58.276Z,13
2019-01-11T14:47:48.428Z,12.9
2019-01-11T14:48:37.856Z,12.9
2019-01-11T14:49:28.984Z,12.9
2019-01-11T14:50:17.453Z,12.9
2019-01-11T14:51:08.350Z,12.9
2019-01-11T14:51:58.376Z,12.9
2019-01-11T14:52:48.468Z,12.9
2019-01-11T14:53:38.273Z,13
2019-01-11T14:54:27.972Z,13
2019-01-11T14:55:18.303Z,13
2019-01-11T14:56:08.621Z,12.9
2019-01-11T14:56:58.195Z,13
2019-01-11T14:57:48.595Z,13
2019-01-11T14:58:38.860Z,13
2019-01-11T14:59:28.866Z,13
2019-01-11T15:00:19.127Z,13.1
2019-01-11T15:01:09.145Z,13.1
2019-01-11T15:01:59.640Z,13.1
2019-01-11T15:02:48.621Z,13.2
2019-01-11T15:03:38.335Z,13.2
2019-01-11T15:04:29.211Z,13.3
2019-01-11T15:05:18.607Z,13.3
2019-01-11T15:06:08.868Z,13.3
2019-01-11T15:06:58.684Z,13.3
2019-01-11T15:07:49.127Z,13.3
2019-01-11T15:08:39.699Z,13.3
2019-01-11T15:09:29.064Z,13.2
2019-01-11T15:10:18.682Z,13.2
2019-01-11T15:11:08.660Z,13.2
2019-01-11T15:11:58.997Z,13.1
2019-01-11T15:12:49.058Z,13.1
2019-01-11T15:13:39.334Z,13.1
2019-01-11T15:14:29.097Z,13.2
2019-01-11T15:15:19.154Z,13.2
2019-01-11T15:16:08.922Z,13.3
2019-01-11T15:16:59.274Z,13.3
2019-01-11T15:17:50.495Z,13.3
2019-01-11T15:18:39.329Z,13.3
2019-01-11T15:19:29.692Z,13.2
2019-01-11T15:20:20.271Z,13.2
2019-01-11T15:21:09.571Z,13.2
2019-01-11T15:22:00.103Z,13.2
2019-01-11T15:22:50.179Z,13.3
2019-01-11T15:23:40.839Z,13.3
2019-01-11T15:24:30.526Z,13.3
2019-01-11T15:25:20.614Z,13.3
2019-01-11T15:26:10.401Z,13.3
2019-01-11T15:27:00.728Z,13.3
2019-01-11T15:27:50.773Z,13.3
2019-01-11T15:28:40.903Z,13.3
2019-01-11T15:29:30.936Z,13.3
2019-01-11T15:30:20.913Z,13.2
2019-01-11T15:31:11.011Z,13.2
2019-01-11T15:32:01.307Z,13.3
2019-01-11T15:32:50.358Z,13.3
2019-01-11T15:33:40.923Z,13.3
2019-01-11T15:34:31.251Z,13.3
2019-01-11T15:35:20.415Z,13.3
2019-01-11T15:36:11.591Z,13.3
2019-01-11T15:37:01.355Z,13.3
2019-01-11T15:37:52.020Z,13.3
2019-01-11T15:38:41.553Z,13.3
2019-01-11T15:39:31.025Z,13.1
2019-01-11T15:40:21.613Z,13.1
2019-01-11T15:41:12.235Z,13.1
2019-01-11T15:42:02.000Z,13.2
2019-01-11T15:42:51.768Z,13.3
2019-01-11T15:43:41.374Z,13.3
2019-01-11T15:44:30.514Z,13.3
2019-01-11T15:45:21.095Z,13.3
2019-01-11T15:46:18.377Z,13.3
2019-01-11T15:47:02.587Z,13.3
2019-01-11T15:47:52.390Z,13.3
2019-01-11T15:48:42.418Z,13.3
2019-01-11T15:49:33.089Z,13.3
2019-01-11T15:50:22.817Z,13.3
2019-01-11T15:51:12.614Z,13.3
2019-01-11T15:52:02.365Z,13.3
2019-01-11T15:52:52.165Z,13.4
2019-01-11T15:53:42.960Z,13.5
2019-01-11T15:54:32.024Z,13.5
2019-01-11T15:55:22.357Z,13.4
2019-01-11T15:56:12.123Z,13.4
2019-01-11T15:57:03.066Z,13.4
2019-01-11T15:57:54.082Z,13.4
2019-01-11T15:58:42.541Z,13.4
2019-01-11T15:59:32.919Z,13.5
2019-01-11T16:00:22.911Z,13.5
2019-01-11T16:01:13.021Z,13.4
2019-01-11T16:02:03.041Z,13.4
2019-01-11T16:02:52.269Z,13.6
2019-01-11T16:03:42.601Z,13.6
2019-01-11T16:04:33.211Z,13.6
2019-01-11T16:05:22.763Z,13.5
2019-01-11T16:06:13.601Z,13.6